Terminal Aerodrome Forecast
Issued by NWS Louisville, KY

Home | Current Version | Previous Version | Text Only | Print | Product List | Glossary On
Versions: 1 2 3 4 5 6 7 8 9 10 11 12 13 14
000
FTUS43 KLMK 312320
TAFSDF
TAF
KSDF 312320Z 0100/0206 28007KT P6SM SKC
     FM010300 VRB04KT P6SM SKC
     FM011500 32007KT P6SM SKC
     FM020100 VRB04KT P6SM SKC=

USA.gov is the U.S. government's official web portal to all federal, state and local government web resources and services.